Time;durP1;ratioP1;P1;durP2;ratioP2;P2;SDS_P1;SDS_P2;PMS_P1;PMS_P2;Temp;Humidity;BMP_temperature;BMP_pressure;BME280_temperature;BME280_humidity;BME280_pressure;Samples;Min_cycle;Max_cycle;Signal;HPM_P1;HPM_P2
2023/10/31 00:02:25;;;;;;;0.50;0.50;;;;;10.40;94457.00;;;;5073566;28;20211;-59
2023/10/31 00:04:54;;;;;;;0.50;0.50;;;;;10.50;94464.00;;;;5073575;28;20557;-60
2023/10/31 00:07:22;;;;;;;0.60;0.60;;;;;10.50;94461.00;;;;5073678;28;20191;-59
2023/10/31 00:09:49;;;;;;;0.60;0.60;;;;;10.40;94470.00;;;;5073675;28;20268;-58
2023/10/31 00:12:16;;;;;;;0.50;0.50;;;;;10.30;94462.00;;;;5073440;28;20215;-58
2023/10/31 00:14:44;;;;;;;0.50;0.50;;;;;10.40;94481.00;;;;5074149;28;20187;-59
2023/10/31 00:17:11;;;;;;;0.50;0.50;;;;;10.30;94488.00;;;;5073342;28;20192;-59
2023/10/31 00:19:39;;;;;;;0.50;0.50;;;;;10.30;94488.00;;;;5073445;28;20567;-58
2023/10/31 00:22:07;;;;;;;0.70;0.70;;;;;10.40;94483.00;;;;5073412;28;20207;-61
2023/10/31 00:24:35;;;;;;;0.60;0.60;;;;;10.30;94487.00;;;;5073410;28;20187;-59
2023/10/31 00:27:02;;;;;;;0.63;0.63;;;;;10.30;94492.00;;;;5073428;28;20671;-59
2023/10/31 00:29:30;;;;;;;0.60;0.60;;;;;10.30;94496.00;;;;5055544;28;20199;-59
2023/10/31 00:31:57;;;;;;;0.50;0.50;;;;;10.20;94485.00;;;;5073702;28;20280;-59
2023/10/31 00:34:25;;;;;;;1.17;1.10;;;;;10.20;94484.00;;;;5073166;28;20195;-59
2023/10/31 00:36:52;;;;;;;0.60;0.60;;;;;10.20;94495.00;;;;5073175;28;20187;-59
2023/10/31 00:39:21;;;;;;;0.50;0.50;;;;;10.10;94489.00;;;;5073129;28;20689;-59
2023/10/31 00:41:49;;;;;;;0.53;0.53;;;;;10.10;94487.00;;;;5054950;28;20284;-59
2023/10/31 00:44:16;;;;;;;0.60;0.60;;;;;10.00;94502.00;;;;5073400;28;20191;-59
2023/10/31 00:46:44;;;;;;;0.53;0.53;;;;;10.00;94514.00;;;;5073602;28;20219;-59
2023/10/31 00:49:12;;;;;;;0.80;0.80;;;;;10.00;94507.00;;;;5073286;28;20191;-59
2023/10/31 00:51:39;;;;;;;0.80;0.80;;;;;9.90;94504.00;;;;5073020;28;20237;-58
2023/10/31 00:54:07;;;;;;;2.17;0.83;;;;;9.80;94508.00;;;;5073090;28;20639;-59
2023/10/31 00:56:35;;;;;;;0.60;0.60;;;;;9.80;94517.00;;;;5073134;28;20188;-58
2023/10/31 00:59:03;;;;;;;0.70;0.70;;;;;9.80;94500.00;;;;5073245;28;20200;-59
2023/10/31 01:01:30;;;;;;;0.60;0.60;;;;;9.70;94515.00;;;;5072861;28;20667;-59
2023/10/31 01:03:58;;;;;;;0.50;0.50;;;;;9.70;94526.00;;;;5055077;28;20553;-59
2023/10/31 01:06:25;;;;;;;0.50;0.50;;;;;9.60;94531.00;;;;5073068;28;20229;-58
2023/10/31 01:08:52;;;;;;;0.50;0.50;;;;;9.70;94528.00;;;;5073270;28;20201;-59
2023/10/31 01:11:20;;;;;;;0.50;0.50;;;;;9.60;94529.00;;;;5072968;28;20268;-60
2023/10/31 01:13:49;;;;;;;0.50;0.50;;;;;9.70;94517.00;;;;5073229;28;20199;-59
2023/10/31 01:16:17;;;;;;;0.60;0.60;;;;;9.80;94520.00;;;;5073016;28;20648;-59
2023/10/31 01:18:44;;;;;;;0.53;0.53;;;;;9.80;94516.00;;;;5073135;28;20227;-59
2023/10/31 01:21:12;;;;;;;0.60;0.60;;;;;9.70;94513.00;;;;5072832;28;20226;-59
2023/10/31 01:23:39;;;;;;;0.50;0.50;;;;;9.70;94516.00;;;;5073242;28;20195;-59
2023/10/31 01:26:06;;;;;;;0.70;0.70;;;;;9.70;94516.00;;;;5073146;28;20218;-59
2023/10/31 01:28:34;;;;;;;0.50;0.50;;;;;9.70;94528.00;;;;5073432;28;20203;-58
2023/10/31 01:31:03;;;;;;;0.40;0.40;;;;;9.60;94526.00;;;;5072500;28;20198;-58
2023/10/31 01:33:30;;;;;;;0.90;0.90;;;;;9.60;94542.00;;;;5073242;28;20479;-59
2023/10/31 01:35:57;;;;;;;0.50;0.50;;;;;9.50;94538.00;;;;5072853;28;20192;-58
2023/10/31 01:38:25;;;;;;;0.97;0.97;;;;;9.60;94535.00;;;;5073233;28;20196;-59
2023/10/31 01:40:53;;;;;;;0.60;0.60;;;;;9.60;94540.00;;;;5072801;28;20203;-59
2023/10/31 01:43:34;;;;;;;0.57;0.57;;;;;9.50;94540.00;;;;5073104;28;20199;-59
2023/10/31 01:46:03;;;;;;;0.70;0.70;;;;;9.60;94544.00;;;;5072650;28;20219;-59
2023/10/31 01:48:33;;;;;;;0.50;0.50;;;;;9.70;94550.00;;;;5072784;28;20196;-59
2023/10/31 01:51:03;;;;;;;0.50;0.50;;;;;9.70;94551.00;;;;5072758;28;20192;-60
2023/10/31 01:53:33;;;;;;;0.50;0.50;;;;;9.80;94552.00;;;;5072842;28;20207;-59
2023/10/31 01:56:02;;;;;;;0.60;0.60;;;;;9.80;94556.00;;;;5055317;28;20540;-59
2023/10/31 01:58:33;;;;;;;0.50;0.50;;;;;9.80;94555.00;;;;5072641;28;20199;-59
2023/10/31 02:01:03;;;;;;;0.50;0.50;;;;;9.80;94561.00;;;;5073014;28;20183;-60
2023/10/31 02:03:31;;;;;;;0.50;0.50;;;;;9.90;94568.00;;;;5072675;28;20306;-59
2023/10/31 02:05:59;;;;;;;0.60;0.60;;;;;9.90;94569.00;;;;5072431;28;20215;-59
2023/10/31 02:08:27;;;;;;;0.50;0.50;;;;;9.90;94568.00;;;;5074494;28;20214;-59
2023/10/31 02:10:54;;;;;;;5.53;1.33;;;;;9.60;94571.00;;;;5075911;28;20199;-59
2023/10/31 02:13:21;;;;;;;0.60;0.60;;;;;9.70;94575.00;;;;5075951;28;20192;-58
2023/10/31 02:15:49;;;;;;;0.80;0.80;;;;;9.70;94576.00;;;;5076394;28;20643;-59
2023/10/31 02:18:19;;;;;;;0.60;0.60;;;;;9.80;94571.00;;;;5075944;28;20199;-60
2023/10/31 02:20:46;;;;;;;0.60;0.60;;;;;9.80;94584.00;;;;5075951;28;20558;-59
2023/10/31 02:23:17;;;;;;;0.60;0.60;;;;;9.70;94588.00;;;;5075571;28;20218;-59
2023/10/31 02:25:44;;;;;;;0.50;0.50;;;;;9.60;94588.00;;;;5075709;28;20195;-59
2023/10/31 02:28:11;;;;;;;0.60;0.60;;;;;9.70;94580.00;;;;5075697;28;20191;-59
2023/10/31 02:30:39;;;;;;;0.50;0.50;;;;;9.60;94586.00;;;;5075737;28;20203;-58
2023/10/31 02:33:06;;;;;;;0.50;0.50;;;;;9.50;94586.00;;;;5057697;28;20571;-58
2023/10/31 02:35:34;;;;;;;0.60;0.60;;;;;9.40;94583.00;;;;5075701;28;20198;-58
2023/10/31 02:38:02;;;;;;;1.30;1.20;;;;;9.30;94596.00;;;;5075900;28;20298;-58
2023/10/31 02:40:30;;;;;;;0.60;0.60;;;;;9.20;94587.00;;;;5075500;28;20199;-59
2023/10/31 02:42:58;;;;;;;0.60;0.60;;;;;9.10;94592.00;;;;5076211;28;20211;-58
2023/10/31 02:45:25;;;;;;;0.83;0.83;;;;;9.10;94598.00;;;;5076575;28;20659;-59
2023/10/31 02:47:53;;;;;;;0.70;0.70;;;;;9.00;94601.00;;;;5075657;28;20211;-58
2023/10/31 02:50:20;;;;;;;0.60;0.60;;;;;9.00;94609.00;;;;5075849;28;20674;-59
2023/10/31 02:52:48;;;;;;;0.80;0.80;;;;;8.90;94612.00;;;;5075768;28;20233;-58
2023/10/31 02:55:15;;;;;;;0.50;0.50;;;;;8.80;94600.00;;;;5075360;28;20237;-60
2023/10/31 02:57:44;;;;;;;0.93;0.93;;;;;8.90;94611.00;;;;5075189;28;20195;-59
2023/10/31 03:00:12;;;;;;;0.70;0.70;;;;;8.90;94603.00;;;;5075365;28;20192;-59
2023/10/31 03:02:40;;;;;;;0.50;0.50;;;;;9.10;94602.00;;;;5074861;28;20219;-58
2023/10/31 03:05:08;;;;;;;0.60;0.60;;;;;9.10;94604.00;;;;5074996;28;20658;-58
2023/10/31 03:07:35;;;;;;;9.37;0.73;;;;;9.00;94610.00;;;;5074617;28;20309;-58
2023/10/31 03:10:03;;;;;;;0.63;0.63;;;;;9.20;94605.00;;;;5075052;28;20198;-60
2023/10/31 03:12:33;;;;;;;0.60;0.60;;;;;9.00;94615.00;;;;5075069;28;20630;-59
2023/10/31 03:15:03;;;;;;;0.60;0.60;;;;;9.10;94609.00;;;;5074937;28;20191;-59
2023/10/31 03:17:31;;;;;;;0.50;0.50;;;;;8.90;94614.00;;;;5074779;28;20226;-59
2023/10/31 03:19:58;;;;;;;1.10;0.77;;;;;9.10;94612.00;;;;5073456;28;20274;-59
2023/10/31 03:22:25;;;;;;;0.53;0.53;;;;;9.10;94622.00;;;;5056517;28;20560;-59
2023/10/31 03:24:53;;;;;;;0.60;0.60;;;;;9.20;94602.00;;;;5056373;28;20207;-59
2023/10/31 03:27:20;;;;;;;0.50;0.50;;;;;9.20;94628.00;;;;5074326;28;20576;-59
2023/10/31 03:29:48;;;;;;;0.73;0.67;;;;;9.30;94634.00;;;;5074435;28;20187;-59
2023/10/31 03:32:17;;;;;;;0.50;0.50;;;;;9.40;94632.00;;;;5074402;28;20219;-59
2023/10/31 03:34:45;;;;;;;1.23;0.90;;;;;9.40;94632.00;;;;5074269;28;20202;-59
2023/10/31 03:37:12;;;;;;;0.50;0.50;;;;;9.40;94636.00;;;;5074260;28;20238;-59
2023/10/31 03:39:40;;;;;;;4.73;0.90;;;;;9.40;94635.00;;;;5074399;28;20194;-59
2023/10/31 03:42:07;;;;;;;0.50;0.50;;;;;9.40;94644.00;;;;5056168;28;20682;-59
2023/10/31 03:44:35;;;;;;;0.57;0.57;;;;;9.40;94641.00;;;;5074585;28;20191;-59
2023/10/31 03:47:02;;;;;;;0.60;0.60;;;;;9.30;94652.00;;;;5074209;28;20238;-59
2023/10/31 03:49:31;;;;;;;0.60;0.60;;;;;9.20;94655.00;;;;5073911;28;20191;-59
2023/10/31 03:51:58;;;;;;;0.60;0.60;;;;;9.30;94662.00;;;;5073974;28;20588;-58
2023/10/31 03:54:26;;;;;;;0.50;0.50;;;;;9.10;94658.00;;;;5074066;28;20199;-59
2023/10/31 03:56:53;;;;;;;3.80;0.80;;;;;9.20;94656.00;;;;5074118;28;20200;-59
2023/10/31 03:59:20;;;;;;;1.13;1.07;;;;;9.10;94656.00;;;;5073930;28;20240;-59
2023/10/31 04:01:48;;;;;;;0.60;0.60;;;;;9.30;94662.00;;;;5073935;28;20692;-59
2023/10/31 04:04:15;;;;;;;0.50;0.50;;;;;9.10;94666.00;;;;5073748;28;20195;-58
2023/10/31 04:06:44;;;;;;;0.60;0.60;;;;;8.90;94654.00;;;;5073708;28;20695;-59
2023/10/31 04:09:11;;;;;;;0.60;0.60;;;;;9.00;94670.00;;;;5073665;28;20262;-59
2023/10/31 04:11:39;;;;;;;0.57;0.57;;;;;9.10;94664.00;;;;5073538;28;20219;-58
2023/10/31 04:14:06;;;;;;;0.80;0.80;;;;;9.10;94667.00;;;;5073839;28;20582;-58
2023/10/31 04:16:38;;;;;;;0.60;0.60;;;;;9.10;94662.00;;;;5073667;28;20202;-59
2023/10/31 04:19:05;;;;;;;0.50;0.50;;;;;9.10;94664.00;;;;5073755;28;20183;-60
2023/10/31 04:21:33;;;;;;;0.53;0.53;;;;;9.10;94683.00;;;;5073600;28;20211;-59
2023/10/31 04:24:02;;;;;;;0.50;0.50;;;;;9.00;94668.00;;;;5073575;28;20183;-59
2023/10/31 04:26:29;;;;;;;0.53;0.53;;;;;8.90;94683.00;;;;5073273;28;20676;-59
2023/10/31 04:28:57;;;;;;;0.60;0.60;;;;;9.00;94684.00;;;;5073584;28;20195;-58
2023/10/31 04:31:24;;;;;;;0.50;0.50;;;;;8.90;94673.00;;;;5073516;28;20223;-59
2023/10/31 04:33:52;;;;;;;0.60;0.60;;;;;9.00;94669.00;;;;5073420;28;20198;-59
2023/10/31 04:36:19;;;;;;;0.50;0.50;;;;;8.80;94662.00;;;;5073200;28;20195;-59
2023/10/31 04:38:46;;;;;;;0.60;0.60;;;;;8.90;94678.00;;;;5073281;28;20693;-58
2023/10/31 04:41:15;;;;;;;0.50;0.50;;;;;8.90;94679.00;;;;5073090;28;20219;-59
2023/10/31 04:43:43;;;;;;;0.50;0.50;;;;;8.90;94677.00;;;;5073500;28;20535;-58
2023/10/31 04:46:10;;;;;;;0.60;0.60;;;;;8.90;94690.00;;;;5073320;28;20192;-59
2023/10/31 04:48:37;;;;;;;0.50;0.50;;;;;8.90;94689.00;;;;5073134;28;20685;-59
2023/10/31 04:51:05;;;;;;;0.60;0.60;;;;;8.90;94689.00;;;;5073035;28;20191;-59
2023/10/31 04:53:34;;;;;;;1.23;0.93;;;;;8.90;94691.00;;;;5073476;28;20191;-59
2023/10/31 04:56:01;;;;;;;0.60;0.60;;;;;8.80;94695.00;;;;5073094;28;20610;-58
2023/10/31 04:58:30;;;;;;;0.50;0.50;;;;;8.60;94688.00;;;;5073117;28;20192;-58
2023/10/31 05:00:57;;;;;;;0.60;0.60;;;;;8.70;94676.00;;;;5072854;28;20198;-58
2023/10/31 05:03:25;;;;;;;0.50;0.50;;;;;8.60;94681.00;;;;5072863;28;20199;-58
2023/10/31 05:05:52;;;;;;;0.60;0.60;;;;;8.50;94678.00;;;;5072957;28;20191;-58
2023/10/31 05:08:20;;;;;;;0.50;0.50;;;;;8.60;94683.00;;;;5072756;28;20212;-58
2023/10/31 05:10:47;;;;;;;2.17;0.73;;;;;8.60;94689.00;;;;5072600;28;20202;-58
2023/10/31 05:13:14;;;;;;;0.50;0.50;;;;;8.60;94690.00;;;;5073316;28;20255;-58
2023/10/31 05:15:43;;;;;;;0.60;0.60;;;;;8.70;94692.00;;;;5072845;28;20215;-58
2023/10/31 05:18:11;;;;;;;0.57;0.57;;;;;8.50;94698.00;;;;5073186;28;20190;-59
2023/10/31 05:20:38;;;;;;;0.60;0.60;;;;;8.50;94719.00;;;;5072652;28;20198;-58
2023/10/31 05:23:05;;;;;;;0.60;0.60;;;;;8.50;94720.00;;;;5072677;28;20721;-58
2023/10/31 05:25:33;;;;;;;0.50;0.50;;;;;8.70;94721.00;;;;5072704;28;20199;-59
2023/10/31 05:28:00;;;;;;;0.53;0.53;;;;;8.60;94725.00;;;;5054821;28;20215;-59
2023/10/31 05:30:28;;;;;;;0.70;0.70;;;;;8.70;94720.00;;;;5073210;28;20639;-58
2023/10/31 05:32:57;;;;;;;0.53;0.53;;;;;8.50;94716.00;;;;5072646;28;20219;-58
2023/10/31 05:35:25;;;;;;;0.67;0.67;;;;;8.60;94715.00;;;;5072943;28;20528;-58
2023/10/31 05:37:52;;;;;;;0.60;0.60;;;;;8.60;94725.00;;;;5072552;28;20188;-59
2023/10/31 05:40:22;;;;;;;0.80;0.80;;;;;8.50;94712.00;;;;5072323;28;20655;-58
2023/10/31 05:42:49;;;;;;;0.50;0.50;;;;;8.50;94719.00;;;;5073901;28;20302;-58
2023/10/31 05:45:18;;;;;;;0.60;0.60;;;;;8.50;94707.00;;;;5076539;28;20297;-58
2023/10/31 05:47:45;;;;;;;0.50;0.50;;;;;8.30;94714.00;;;;5076241;28;20218;-58
2023/10/31 05:50:14;;;;;;;0.80;0.80;;;;;8.30;94722.00;;;;5076213;28;20203;-58
2023/10/31 05:52:42;;;;;;;0.57;0.57;;;;;8.40;94712.00;;;;5076271;28;20690;-59
2023/10/31 05:55:09;;;;;;;1.03;1.00;;;;;8.40;94715.00;;;;5076574;28;20222;-58
2023/10/31 05:57:37;;;;;;;0.80;0.80;;;;;8.50;94722.00;;;;5076138;28;20186;-59
2023/10/31 06:00:05;;;;;;;0.50;0.50;;;;;8.50;94733.00;;;;5076041;28;20219;-58
2023/10/31 06:02:33;;;;;;;1.17;1.03;;;;;8.50;94726.00;;;;5075914;28;20670;-59
2023/10/31 06:05:00;;;;;;;0.60;0.60;;;;;8.60;94714.00;;;;5076443;28;20193;-61
2023/10/31 06:07:30;;;;;;;0.50;0.50;;;;;8.60;94719.00;;;;5075792;28;20211;-58
2023/10/31 06:09:57;;;;;;;0.53;0.53;;;;;8.40;94720.00;;;;5075865;28;20216;-59
2023/10/31 06:12:25;;;;;;;0.53;0.53;;;;;8.40;94731.00;;;;5075655;28;20223;-58
2023/10/31 06:14:52;;;;;;;0.50;0.50;;;;;8.30;94740.00;;;;5075790;28;20191;-58
2023/10/31 06:17:19;;;;;;;0.57;0.57;;;;;8.10;94749.00;;;;5075791;28;20187;-58
2023/10/31 06:19:47;;;;;;;0.77;0.77;;;;;8.10;94755.00;;;;5075555;28;20557;-59
2023/10/31 06:22:14;;;;;;;0.50;0.50;;;;;7.90;94754.00;;;;5075622;28;20281;-59
2023/10/31 06:24:43;;;;;;;0.60;0.60;;;;;8.00;94750.00;;;;5075683;28;20673;-59
2023/10/31 06:27:10;;;;;;;0.70;0.70;;;;;8.00;94742.00;;;;5075611;28;20266;-60
2023/10/31 06:29:38;;;;;;;0.60;0.60;;;;;8.20;94747.00;;;;5075574;28;20249;-59
2023/10/31 06:32:07;;;;;;;0.67;0.67;;;;;8.10;94768.00;;;;5075432;28;20690;-59
2023/10/31 06:34:34;;;;;;;0.70;0.70;;;;;8.00;94761.00;;;;5075462;28;20190;-58
2023/10/31 06:37:03;;;;;;;0.50;0.50;;;;;8.10;94763.00;;;;5075526;28;20200;-59
2023/10/31 06:39:31;;;;;;;0.60;0.60;;;;;8.40;94762.00;;;;5076067;28;20666;-58
2023/10/31 06:42:00;;;;;;;0.50;0.50;;;;;8.30;94777.00;;;;5058167;28;20317;-59
2023/10/31 06:44:27;;;;;;;0.70;0.70;;;;;8.30;94785.00;;;;5058188;28;20781;-59
2023/10/31 06:46:55;;;;;;;0.50;0.50;;;;;8.20;94784.00;;;;5075862;28;20667;-59
2023/10/31 06:49:23;;;;;;;0.50;0.50;;;;;8.10;94781.00;;;;5075232;28;20216;-58
2023/10/31 06:51:51;;;;;;;0.83;0.83;;;;;8.20;94787.00;;;;5075034;28;20207;-58
2023/10/31 06:54:18;;;;;;;0.50;0.50;;;;;8.10;94786.00;;;;5074949;28;20191;-58
2023/10/31 06:56:46;;;;;;;0.60;0.60;;;;;8.10;94793.00;;;;5075052;28;20210;-58
2023/10/31 06:59:14;;;;;;;0.60;0.60;;;;;8.20;94791.00;;;;5075652;28;20191;-58
2023/10/31 07:01:43;;;;;;;0.60;0.60;;;;;8.30;94792.00;;;;5075203;28;20214;-58
2023/10/31 07:04:10;;;;;;;0.50;0.50;;;;;8.30;94799.00;;;;5074951;28;20206;-58
2023/10/31 07:06:38;;;;;;;0.53;0.53;;;;;8.50;94807.00;;;;5074908;28;20263;-60
2023/10/31 07:09:05;;;;;;;0.60;0.60;;;;;8.50;94808.00;;;;5056950;28;20693;-59
2023/10/31 07:11:34;;;;;;;0.57;0.57;;;;;8.60;94821.00;;;;5074541;28;20269;-59
2023/10/31 07:14:01;;;;;;;0.60;0.60;;;;;8.40;94819.00;;;;5075133;28;20203;-59
2023/10/31 07:16:30;;;;;;;0.90;0.83;;;;;8.60;94820.00;;;;5074871;28;20724;-59
2023/10/31 07:18:58;;;;;;;0.50;0.50;;;;;8.50;94818.00;;;;5075676;28;20570;-59
2023/10/31 07:21:26;;;;;;;0.50;0.50;;;;;8.70;94818.00;;;;5076000;28;20211;-62
2023/10/31 07:23:53;;;;;;;0.50;0.50;;;;;8.70;94817.00;;;;5075682;28;20551;-62
2023/10/31 07:26:21;;;;;;;0.60;0.60;;;;;8.60;94808.00;;;;5075378;28;20191;-62
2023/10/31 07:28:48;;;;;;;1.37;1.33;;;;;8.60;94819.00;;;;5075548;28;20219;-63
2023/10/31 07:31:16;;;;;;;0.60;0.60;;;;;8.80;94825.00;;;;5075948;28;20287;-63
2023/10/31 07:33:46;;;;;;;0.80;0.80;;;;;8.90;94826.00;;;;5075904;28;20187;-61
2023/10/31 07:36:14;;;;;;;0.60;0.60;;;;;9.00;94826.00;;;;5075476;28;20183;-59
2023/10/31 07:38:42;;;;;;;0.50;0.50;;;;;9.10;94823.00;;;;5061064;28;20667;-59
2023/10/31 07:41:09;;;;;;;0.60;0.60;;;;;9.30;94830.00;;;;5059712;28;20218;-59
2023/10/31 07:43:37;;;;;;;1.10;1.10;;;;;9.30;94833.00;;;;5039563;28;20208;-59
2023/10/31 07:46:05;;;;;;;0.60;0.60;;;;;9.20;94822.00;;;;5052848;28;20203;-59
2023/10/31 07:48:32;;;;;;;0.53;0.53;;;;;9.40;94828.00;;;;5047009;28;20221;-59
2023/10/31 07:51:01;;;;;;;0.50;0.50;;;;;9.40;94827.00;;;;5052806;28;20207;-59
2023/10/31 07:53:29;;;;;;;0.73;0.73;;;;;9.40;94825.00;;;;5072283;28;20187;-59
2023/10/31 07:55:56;;;;;;;0.80;0.80;;;;;9.60;94841.00;;;;5063533;28;20562;-59
2023/10/31 07:58:24;;;;;;;0.60;0.60;;;;;9.40;94846.00;;;;5072535;28;20690;-59
2023/10/31 08:00:51;;;;;;;0.57;0.57;;;;;9.50;94853.00;;;;5057214;28;20196;-59
2023/10/31 08:03:18;;;;;;;2.30;1.63;;;;;9.50;94860.00;;;;5034753;28;20207;-59
2023/10/31 08:05:46;;;;;;;1.13;1.03;;;;;9.60;94873.00;;;;5051834;28;20203;-59
2023/10/31 08:08:15;;;;;;;0.50;0.50;;;;;9.10;94864.00;;;;5052355;28;20224;-59
2023/10/31 08:10:42;;;;;;;1.50;1.20;;;;;9.30;94866.00;;;;5061788;28;20199;-59
2023/10/31 08:13:10;;;;;;;1.00;1.00;;;;;9.40;94864.00;;;;5062244;28;20304;-60
2023/10/31 08:15:37;;;;;;;0.80;0.80;;;;;9.30;94867.00;;;;5051876;28;20200;-59
2023/10/31 08:18:05;;;;;;;0.77;0.77;;;;;9.40;94867.00;;;;5052679;28;20188;-59
2023/10/31 08:20:33;;;;;;;0.70;0.70;;;;;9.50;94871.00;;;;5052048;28;20196;-59
2023/10/31 08:23:01;;;;;;;0.60;0.60;;;;;9.60;94868.00;;;;5062879;28;20219;-58
2023/10/31 08:25:30;;;;;;;0.60;0.60;;;;;9.40;94861.00;;;;5064946;28;20223;-59
2023/10/31 08:27:57;;;;;;;0.73;0.73;;;;;9.70;94875.00;;;;5056573;28;20233;-59
2023/10/31 08:30:25;;;;;;;0.67;0.67;;;;;9.50;94875.00;;;;5057534;28;20253;-59
2023/10/31 08:32:53;;;;;;;2.50;1.00;;;;;9.40;94869.00;;;;5070698;28;20257;-59
2023/10/31 08:35:21;;;;;;;0.63;0.63;;;;;9.50;94878.00;;;;5057479;28;20279;-60
2023/10/31 08:37:48;;;;;;;0.60;0.60;;;;;9.50;94875.00;;;;5071959;28;20197;-57
2023/10/31 08:40:16;;;;;;;0.60;0.60;;;;;9.60;94875.00;;;;5062521;28;20214;-57
2023/10/31 08:42:45;;;;;;;2.03;1.30;;;;;10.00;94876.00;;;;5064221;28;20219;-57
2023/10/31 08:45:12;;;;;;;0.60;0.60;;;;;9.70;94877.00;;;;5070128;28;20192;-57
2023/10/31 08:47:40;;;;;;;0.60;0.60;;;;;9.70;94881.00;;;;5051762;28;20204;-58
2023/10/31 08:50:09;;;;;;;6.23;1.20;;;;;10.20;94887.00;;;;5057799;28;20229;-57
2023/10/31 08:52:36;;;;;;;0.50;0.50;;;;;10.10;94886.00;;;;5064945;28;20219;-59
2023/10/31 08:55:04;;;;;;;2.93;2.13;;;;;10.00;94891.00;;;;5069179;28;20199;-58
2023/10/31 08:57:33;;;;;;;1.27;1.17;;;;;10.30;94895.00;;;;5068300;28;20222;-57
2023/10/31 09:00:04;;;;;;;0.90;0.90;;;;;10.10;94895.00;;;;5051803;28;20697;-57
2023/10/31 09:02:32;;;;;;;0.50;0.50;;;;;10.10;94902.00;;;;5051506;28;20259;-57
2023/10/31 09:04:59;;;;;;;1.80;1.30;;;;;10.30;94892.00;;;;5063983;28;20195;-57
2023/10/31 09:07:27;;;;;;;0.80;0.80;;;;;10.10;94896.00;;;;5063380;28;20192;-59
2023/10/31 09:09:54;;;;;;;1.03;1.03;;;;;10.50;94890.00;;;;5051812;28;20222;-57
2023/10/31 09:12:22;;;;;;;0.70;0.70;;;;;10.50;94891.00;;;;5051164;28;20215;-59
2023/10/31 09:14:50;;;;;;;0.60;0.60;;;;;10.70;94887.00;;;;5051708;28;20200;-59
2023/10/31 09:17:19;;;;;;;0.70;0.70;;;;;10.80;94877.00;;;;5055602;28;20196;-59
2023/10/31 09:19:46;;;;;;;1.03;1.03;;;;;10.70;94892.00;;;;5075910;28;20231;-59
2023/10/31 09:22:14;;;;;;;0.87;0.87;;;;;11.00;94894.00;;;;5057641;28;20250;-59
2023/10/31 09:24:42;;;;;;;2.90;1.23;;;;;10.70;94888.00;;;;5038157;28;20284;-60
2023/10/31 09:27:10;;;;;;;0.60;0.60;;;;;10.50;94892.00;;;;5066145;28;20833;-59
2023/10/31 09:29:38;;;;;;;0.80;0.80;;;;;10.90;94888.00;;;;5067028;28;20220;-58
2023/10/31 09:32:06;;;;;;;0.70;0.70;;;;;10.70;94897.00;;;;5073310;28;20300;-59
2023/10/31 09:34:35;;;;;;;0.60;0.60;;;;;11.10;94898.00;;;;5057701;28;20191;-58
2023/10/31 09:37:03;;;;;;;0.90;0.90;;;;;11.30;94897.00;;;;5059171;28;20191;-58
2023/10/31 09:39:30;;;;;;;0.80;0.80;;;;;11.40;94897.00;;;;5066611;28;20559;-58
2023/10/31 09:41:58;;;;;;;0.87;0.87;;;;;11.00;94909.00;;;;5063819;28;20230;-58
2023/10/31 09:44:25;;;;;;;0.60;0.60;;;;;11.30;94897.00;;;;5055505;28;20199;-58
2023/10/31 09:46:54;;;;;;;3.40;1.23;;;;;11.00;94903.00;;;;5070485;28;20200;-57
2023/10/31 09:49:21;;;;;;;0.87;0.87;;;;;11.10;94918.00;;;;5064274;28;20229;-57
2023/10/31 09:51:50;;;;;;;0.53;0.53;;;;;11.00;94896.00;;;;5074226;28;20245;-59
2023/10/31 09:54:18;;;;;;;0.70;0.70;;;;;11.00;94911.00;;;;5059728;28;20703;-59
2023/10/31 09:56:45;;;;;;;0.70;0.70;;;;;11.40;94911.00;;;;5065396;28;20199;-61
2023/10/31 09:59:16;;;;;;;0.57;0.57;;;;;11.40;94901.00;;;;5055205;28;20196;-59
2023/10/31 10:01:44;;;;;;;1.03;0.97;;;;;11.40;94909.00;;;;5064396;28;20219;-60
2023/10/31 10:04:12;;;;;;;0.50;0.50;;;;;11.40;94909.00;;;;5071513;28;20199;-60
2023/10/31 10:06:52;;;;;;;0.80;0.80;;;;;11.20;94908.00;;;;5069439;28;20201;-59
2023/10/31 10:09:19;;;;;;;0.63;0.63;;;;;11.00;94896.00;;;;5054372;28;20290;-59
2023/10/31 10:11:47;;;;;;;4.13;1.23;;;;;11.20;94909.00;;;;5054396;28;20216;-59
2023/10/31 10:14:15;;;;;;;0.70;0.70;;;;;11.00;94889.00;;;;5061343;28;20283;-60
2023/10/31 10:16:42;;;;;;;0.50;0.50;;;;;11.50;94891.00;;;;5063843;28;20200;-60
2023/10/31 10:19:21;;;;;;;0.60;0.60;;;;;11.40;94895.00;;;;5067002;28;20671;-59
2023/10/31 10:21:53;;;;;;;0.63;0.63;;;;;11.30;94899.00;;;;5059183;28;20212;-59
2023/10/31 10:24:21;;;;;;;0.50;0.50;;;;;11.70;94893.00;;;;5063718;28;20679;-59
2023/10/31 10:26:49;;;;;;;0.67;0.67;;;;;12.00;94893.00;;;;5073468;28;20283;-60
2023/10/31 10:29:17;;;;;;;0.60;0.60;;;;;12.00;94897.00;;;;5072523;28;20219;-60
2023/10/31 10:31:45;;;;;;;0.60;0.60;;;;;12.20;94912.00;;;;5053575;28;20219;-58
2023/10/31 10:34:16;;;;;;;0.50;0.50;;;;;12.10;94918.00;;;;5061767;28;20218;-59
2023/10/31 10:36:47;;;;;;;3.50;1.30;;;;;11.80;94909.00;;;;5064259;28;20188;-59
2023/10/31 10:39:20;;;;;;;0.63;0.63;;;;;11.70;94909.00;;;;5060214;28;20195;-60
2023/10/31 10:41:54;;;;;;;0.50;0.50;;;12.30;68.00;11.80;94899.00;;;;5044574;28;20263;-59
2023/10/31 10:44:34;;;;;;;0.60;0.60;;;12.40;70.60;11.90;94918.00;;;;5053943;28;20246;-59
2023/10/31 10:47:05;;;;;;;0.50;0.50;;;12.30;69.90;11.60;94909.00;;;;5053594;28;20223;-58
2023/10/31 10:49:35;;;;;;;0.60;0.60;;;12.40;69.60;11.90;94917.00;;;;5060778;28;20672;-58
2023/10/31 10:52:21;;;;;;;0.50;0.50;;;12.40;70.20;12.00;94924.00;;;;5053048;28;20266;-58
2023/10/31 10:54:59;;;;;;;0.60;0.60;;;12.60;68.30;12.00;94921.00;;;;5050953;28;20192;-58
2023/10/31 10:57:38;;;;;;;0.50;0.50;;;12.60;67.60;12.10;94921.00;;;;5059187;28;20176;-58
2023/10/31 11:00:12;;;;;;;0.50;0.50;;;12.60;69.50;12.30;94908.00;;;;5052651;28;20670;-59
2023/10/31 11:02:42;;;;;;;0.60;0.60;;;12.80;69.70;12.30;94933.00;;;;5050234;28;20219;-58
2023/10/31 11:05:10;;;;;;;0.50;0.50;;;;;12.10;94924.00;;;;5069593;28;20195;-59
2023/10/31 11:07:39;;;;;;;0.60;0.60;;;;;11.90;94923.00;;;;5053327;28;20286;-59
2023/10/31 11:10:10;;;;;;;0.50;0.50;;;12.30;68.60;11.50;94933.00;;;;5060088;28;20698;-59
2023/10/31 11:12:39;;;;;;;0.60;0.60;;;;;11.50;94928.00;;;;5066408;28;20235;-59
2023/10/31 11:15:08;;;;;;;0.60;0.60;;;;;11.90;94913.00;;;;5035239;28;20664;-60
2023/10/31 11:17:38;;;;;;;0.60;0.60;;;;;12.10;94923.00;;;;5052602;28;20229;-59
2023/10/31 11:20:10;;;;;;;0.70;0.70;;;;;12.20;94931.00;;;;5054339;28;20690;-59
2023/10/31 11:22:42;;;;;;;0.60;0.60;;;;;11.90;94928.00;;;;5054073;28;20639;-60
2023/10/31 11:25:13;;;;;;;0.60;0.60;;;;;11.80;94928.00;;;;5058718;28;20266;-59
2023/10/31 11:27:41;;;;;;;0.70;0.70;;;;;12.00;94929.00;;;;5049701;28;20195;-59
2023/10/31 11:30:21;;;;;;;0.53;0.53;;;;;11.90;94937.00;;;;5053892;28;20228;-58
2023/10/31 11:32:50;;;;;;;0.60;0.60;;;;;11.70;94938.00;;;;5031513;28;20582;-58
2023/10/31 11:35:18;;;;;;;0.60;0.60;;;;;11.80;94946.00;;;;5054044;28;20227;-58
2023/10/31 11:37:49;;;;;;;0.60;0.60;;;;;11.60;94955.00;;;;5053635;28;20663;-58
2023/10/31 11:40:20;;;;;;;1.57;1.47;;;;;11.80;94959.00;;;;5034843;28;20287;-58
2023/10/31 11:42:54;;;;;;;0.70;0.70;;;;;11.90;94953.00;;;;5053578;28;20230;-59
2023/10/31 11:45:35;;;;;;;0.53;0.53;;;12.40;69.40;11.60;94958.00;;;;5053294;28;20188;-58
2023/10/31 11:48:04;;;;;;;0.60;0.60;;;12.30;71.20;11.70;94959.00;;;;5053422;28;20279;-58
2023/10/31 11:50:32;;;;;;;0.53;0.53;;;12.40;71.10;11.60;94982.00;;;;5062170;28;20701;-58
2023/10/31 11:53:05;;;;;;;0.60;0.60;;;12.30;72.30;11.60;94972.00;;;;5067619;28;20582;-58
2023/10/31 11:55:36;;;;;;;0.50;0.50;;;12.20;72.90;11.30;94975.00;;;;5053105;28;20192;-58
2023/10/31 11:58:17;;;;;;;2.03;1.13;;;12.00;73.20;11.50;94975.00;;;;5053278;28;20191;-58
2023/10/31 12:00:46;;;;;;;0.60;0.60;;;12.10;74.60;11.80;94955.00;;;;5053301;28;20234;-59
2023/10/31 12:03:13;;;;;;;0.70;0.70;;;12.30;75.40;11.70;94970.00;;;;5053014;28;20212;-60
2023/10/31 12:05:41;;;;;;;0.60;0.60;;;12.20;73.20;11.90;94969.00;;;;5063329;28;20195;-59
2023/10/31 12:08:08;;;;;;;0.57;0.57;;;12.40;73.50;11.70;94968.00;;;;5048525;28;20636;-59
2023/10/31 12:10:36;;;;;;;0.60;0.60;;;12.30;73.20;11.70;94986.00;;;;5053396;28;20721;-59
2023/10/31 12:13:03;;;;;;;0.60;0.60;;;12.30;73.40;11.50;94973.00;;;;5053293;28;20212;-59
2023/10/31 12:15:30;;;;;;;0.77;0.77;;;12.00;73.10;11.30;94990.00;;;;5063802;28;20218;-59
2023/10/31 12:18:01;;;;;;;0.70;0.70;;;12.00;72.60;11.30;94995.00;;;;5055132;28;20198;-59
2023/10/31 12:20:28;;;;;;;0.60;0.60;;;12.00;72.60;11.50;94996.00;;;;5072610;28;20191;-59
2023/10/31 12:23:05;;;;;;;0.60;0.60;;;11.90;73.60;11.20;94990.00;;;;5055067;28;20620;-61